createdAt,value
2018-04-07T00:00:35.807Z,63.50
2018-04-07T00:03:03.217Z,63.61
2018-04-07T00:05:30.637Z,63.97
2018-04-07T00:07:58.038Z,64.15
2018-04-07T00:10:25.700Z,63.91
2018-04-07T00:12:53.104Z,63.95
2018-04-07T00:15:20.532Z,64.04
2018-04-07T00:17:47.930Z,64.21
2018-04-07T00:20:15.338Z,64.11
2018-04-07T00:22:42.743Z,63.83
2018-04-07T00:25:10.126Z,65.58
2018-04-07T00:27:37.535Z,64.81
2018-04-07T00:30:04.969Z,67.54
2018-04-07T00:32:32.414Z,69.26
2018-04-07T00:34:59.938Z,69.20
2018-04-07T00:37:27.359Z,68.62
2018-04-07T00:39:54.781Z,68.26
2018-04-07T00:42:22.182Z,68.40
2018-04-07T00:44:49.557Z,69.72
2018-04-07T00:47:16.990Z,69.90
2018-04-07T00:49:44.367Z,70.71
2018-04-07T00:52:11.788Z,69.68
2018-04-07T00:54:39.241Z,70.10
2018-04-07T00:57:06.682Z,69.79
2018-04-07T00:59:34.078Z,69.54
2018-04-07T01:02:01.486Z,69.81
2018-04-07T01:04:28.883Z,70.57
2018-04-07T01:06:56.273Z,70.87
2018-04-07T01:09:23.707Z,71.46
2018-04-07T01:11:51.137Z,70.46
2018-04-07T01:14:18.597Z,70.66
2018-04-07T01:16:45.989Z,72.31
2018-04-07T01:19:13.393Z,70.94
2018-04-07T01:21:40.790Z,69.89
2018-04-07T01:24:08.187Z,70.24
2018-04-07T01:26:35.585Z,70.90
2018-04-07T01:29:03.063Z,71.08
2018-04-07T01:31:31.461Z,70.63
2018-04-07T01:33:58.886Z,70.90
2018-04-07T01:36:26.341Z,72.10
2018-04-07T01:38:53.798Z,71.63
2018-04-07T01:41:21.225Z,71.99
2018-04-07T01:43:48.634Z,72.69
2018-04-07T01:46:16.034Z,71.20
2018-04-07T01:48:43.432Z,71.85
2018-04-07T01:51:10.823Z,71.76
2018-04-07T01:53:38.263Z,72.45
2018-04-07T01:56:05.699Z,73.12
2018-04-07T01:58:33.157Z,72.95
2018-04-07T02:01:00.603Z,73.18
2018-04-07T02:03:28.151Z,72.32
2018-04-07T02:05:55.546Z,71.38
2018-04-07T02:08:23.909Z,72.11
2018-04-07T02:10:51.387Z,72.69
2018-04-07T02:13:18.809Z,72.00
2018-04-07T02:15:46.197Z,71.45
2018-04-07T02:20:47.449Z,70.27
2018-04-07T02:23:14.845Z,69.80
2018-04-07T02:25:42.275Z,69.65
2018-04-07T02:28:09.731Z,69.77
2018-04-07T02:30:37.193Z,70.17
2018-04-07T02:33:04.645Z,70.52
2018-04-07T02:35:32.102Z,69.15
2018-04-07T02:37:59.553Z,70.05
2018-04-07T02:40:27.001Z,72.35
2018-04-07T02:42:54.472Z,73.17
2018-04-07T02:45:21.924Z,73.75
2018-04-07T02:47:49.378Z,74.77
2018-04-07T02:50:16.867Z,75.26
2018-04-07T02:52:44.294Z,75.93
2018-04-07T02:55:11.772Z,75.73
2018-04-07T02:57:39.211Z,75.93
2018-04-07T03:00:06.665Z,76.04
2018-04-07T03:02:34.128Z,76.83
2018-04-07T03:05:01.594Z,77.40
2018-04-07T03:07:29.025Z,77.50
2018-04-07T03:09:56.499Z,76.67
2018-04-07T03:12:23.952Z,77.31
2018-04-07T03:14:51.414Z,77.21
2018-04-07T03:17:18.870Z,77.34
2018-04-07T03:19:46.346Z,78.13
2018-04-07T03:22:13.806Z,78.84
2018-04-07T03:24:41.246Z,79.03
2018-04-07T03:27:09.457Z,78.87
2018-04-07T03:29:36.866Z,79.06
2018-04-07T03:32:05.125Z,78.66
2018-04-07T03:34:32.526Z,78.63
2018-04-07T03:36:59.928Z,77.73
2018-04-07T03:39:27.330Z,77.10
2018-04-07T03:41:54.734Z,76.92
2018-04-07T03:44:22.150Z,76.76
2018-04-07T03:46:49.587Z,76.72
2018-04-07T03:49:17.073Z,76.17
2018-04-07T03:51:44.532Z,76.19
2018-04-07T03:54:11.977Z,75.08
2018-04-07T03:56:39.431Z,75.03
2018-04-07T04:01:40.630Z,77.13
2018-04-07T04:04:08.048Z,77.53
2018-04-07T04:06:36.162Z,78.46
2018-04-07T04:09:03.582Z,78.55
2018-04-07T04:11:30.967Z,78.91
2018-04-07T04:13:58.800Z,78.78
2018-04-07T04:16:26.185Z,79.05
2018-04-07T04:18:53.641Z,79.37
2018-04-07T04:21:21.087Z,79.08
2018-04-07T04:23:48.534Z,78.73
2018-04-07T04:26:15.986Z,79.19
2018-04-07T04:28:43.456Z,78.96
2018-04-07T04:31:10.902Z,78.86
2018-04-07T04:33:38.358Z,79.66
2018-04-07T04:36:05.836Z,79.76
2018-04-07T04:38:33.266Z,79.40
2018-04-07T04:41:00.747Z,78.61
2018-04-07T04:43:28.222Z,78.14
2018-04-07T04:45:55.649Z,79.02
2018-04-07T04:48:23.116Z,78.65
2018-04-07T04:50:50.586Z,78.14
2018-04-07T04:53:18.034Z,77.93
2018-04-07T04:55:45.479Z,78.70
2018-04-07T04:58:12.937Z,78.14
2018-04-07T05:00:40.852Z,77.57
2018-04-07T05:03:08.315Z,77.33
2018-04-07T05:05:35.722Z,77.20
2018-04-07T05:08:03.191Z,77.58
2018-04-07T05:10:30.578Z,78.56
2018-04-07T05:12:58.030Z,77.23
2018-04-07T05:15:25.468Z,77.34
2018-04-07T05:17:52.928Z,77.11
2018-04-07T05:20:20.401Z,77.00
2018-04-07T05:22:47.846Z,77.17
2018-04-07T05:25:15.276Z,76.88
2018-04-07T05:27:42.749Z,76.75
2018-04-07T05:30:10.325Z,76.52
2018-04-07T05:32:37.759Z,76.71
2018-04-07T05:35:05.139Z,76.50
2018-04-07T05:37:32.586Z,76.46
2018-04-07T05:40:00.056Z,76.49
2018-04-07T05:42:27.499Z,77.23
2018-04-07T05:44:54.959Z,76.28
2018-04-07T05:47:22.401Z,76.60
2018-04-07T05:49:49.872Z,76.22
2018-04-07T05:52:17.328Z,75.81
2018-04-07T05:54:44.825Z,74.74
2018-04-07T05:57:12.242Z,74.96
2018-04-07T05:59:40.161Z,75.01
2018-04-07T06:02:07.559Z,74.82
2018-04-07T06:04:35.071Z,74.78
2018-04-07T06:07:02.483Z,73.49
2018-04-07T06:09:29.941Z,70.99
2018-04-07T06:11:57.318Z,69.61
2018-04-07T06:14:24.760Z,69.69
2018-04-07T06:16:52.226Z,70.45
2018-04-07T06:19:19.681Z,70.99
2018-04-07T06:21:47.118Z,70.94
2018-04-07T06:24:14.575Z,70.52
2018-04-07T06:26:42.044Z,70.06
2018-04-07T06:29:09.500Z,70.19
2018-04-07T06:31:36.958Z,68.88
2018-04-07T06:34:04.406Z,69.21
2018-04-07T06:36:31.856Z,69.20
2018-04-07T06:38:59.343Z,69.27
2018-04-07T06:41:26.885Z,67.51
2018-04-07T06:43:54.353Z,67.78
2018-04-07T06:46:21.860Z,67.29
2018-04-07T06:48:49.277Z,68.23
2018-04-07T06:51:16.733Z,65.65
2018-04-07T06:53:44.140Z,65.67
2018-04-07T06:56:12.306Z,64.85
2018-04-07T06:58:39.716Z,64.56
2018-04-07T07:01:07.360Z,64.11
2018-04-07T07:03:34.844Z,64.23
2018-04-07T07:06:02.283Z,64.24
2018-04-07T07:08:29.760Z,63.20
2018-04-07T07:10:57.220Z,63.15
2018-04-07T07:13:24.669Z,62.77
2018-04-07T07:15:52.130Z,62.24
2018-04-07T07:18:19.645Z,62.78
2018-04-07T07:20:47.118Z,62.22
2018-04-07T07:23:14.499Z,62.14
2018-04-07T07:25:42.070Z,61.87
2018-04-07T07:28:09.511Z,60.61
2018-04-07T07:30:36.972Z,60.84
2018-04-07T07:33:04.431Z,59.92
2018-04-07T07:35:31.886Z,59.64
2018-04-07T07:37:59.319Z,59.92
2018-04-07T07:40:26.796Z,58.03
2018-04-07T07:42:54.173Z,58.84
2018-04-07T07:45:21.632Z,59.81
2018-04-07T07:47:49.082Z,59.48
2018-04-07T07:50:16.633Z,60.14
2018-04-07T07:52:44.612Z,58.07
2018-04-07T07:55:12.037Z,59.03
2018-04-07T07:57:39.519Z,57.16
2018-04-07T08:00:07.693Z,57.68
2018-04-07T08:02:35.143Z,58.45
2018-04-07T08:05:02.601Z,56.80
2018-04-07T08:07:30.059Z,56.91
2018-04-07T08:09:57.524Z,56.49
2018-04-07T08:12:24.981Z,56.19
2018-04-07T08:14:52.441Z,56.42
2018-04-07T08:17:19.912Z,56.10
2018-04-07T08:19:47.376Z,54.96
2018-04-07T08:22:15.634Z,54.97
2018-04-07T08:24:43.082Z,54.80
2018-04-07T08:27:10.570Z,54.77
2018-04-07T08:29:37.998Z,53.21
2018-04-07T08:32:05.595Z,53.68
2018-04-07T08:34:33.032Z,52.92
2018-04-07T08:37:00.489Z,52.26
2018-04-07T08:39:28.451Z,52.53
2018-04-07T08:41:55.910Z,51.98
2018-04-07T08:44:23.368Z,51.76
2018-04-07T08:46:50.823Z,51.88
2018-04-07T08:49:18.379Z,51.91
2018-04-07T08:51:46.758Z,51.78
2018-04-07T08:54:14.150Z,52.10
2018-04-07T08:56:41.569Z,51.03
2018-04-07T08:59:09.043Z,50.64
2018-04-07T09:01:36.597Z,50.24
2018-04-07T09:04:04.048Z,50.33
2018-04-07T09:06:31.515Z,50.17
2018-04-07T09:08:58.963Z,50.28
2018-04-07T09:11:26.784Z,49.88
2018-04-07T09:13:54.186Z,49.80
2018-04-07T09:16:21.672Z,48.50
2018-04-07T09:18:49.053Z,48.06
2018-04-07T09:21:16.560Z,47.77
2018-04-07T09:23:43.935Z,48.30
2018-04-07T09:26:11.345Z,48.36
2018-04-07T09:28:38.742Z,46.98
2018-04-07T09:31:11.633Z,48.26
2018-04-07T09:33:39.037Z,47.68
2018-04-07T09:36:06.491Z,47.81
2018-04-07T09:38:33.890Z,47.34
2018-04-07T09:41:01.285Z,47.08
2018-04-07T09:43:28.677Z,46.70
2018-04-07T09:45:56.100Z,45.70
2018-04-07T09:48:23.502Z,45.89
2018-04-07T09:50:50.896Z,45.17
2018-04-07T09:53:19.193Z,45.38
2018-04-07T09:55:46.619Z,44.97
2018-04-07T09:58:14.111Z,45.09
2018-04-07T10:00:47.246Z,43.99
2018-04-07T10:03:21.829Z,43.36
2018-04-07T10:05:49.814Z,43.96
2018-04-07T10:08:17.561Z,44.20
2018-04-07T10:10:44.962Z,44.18
2018-04-07T10:13:12.376Z,43.63
2018-04-07T10:15:39.798Z,43.66
2018-04-07T10:18:07.221Z,44.22
2018-04-07T10:20:34.623Z,42.93
2018-04-07T10:23:02.040Z,43.20
2018-04-07T10:25:29.440Z,43.26
2018-04-07T10:27:56.846Z,42.23
2018-04-07T10:30:24.243Z,41.63
2018-04-07T10:32:51.655Z,41.38
2018-04-07T10:35:19.057Z,41.35
2018-04-07T10:37:46.462Z,41.27
2018-04-07T10:40:14.482Z,41.36
2018-04-07T10:42:41.891Z,41.12
2018-04-07T10:45:09.294Z,39.73
2018-04-07T10:47:36.702Z,39.60
2018-04-07T10:50:04.109Z,39.61
2018-04-07T10:52:31.521Z,40.16
2018-04-07T10:54:58.915Z,38.70
2018-04-07T10:57:26.325Z,40.24
2018-04-07T10:59:53.739Z,38.96
2018-04-07T11:02:22.157Z,39.20
2018-04-07T11:04:49.553Z,39.07
2018-04-07T11:07:16.971Z,38.88
2018-04-07T11:09:44.380Z,38.33
2018-04-07T11:12:11.770Z,38.99
2018-04-07T11:14:39.176Z,37.28
2018-04-07T11:17:06.569Z,37.39
2018-04-07T11:19:33.988Z,37.26
2018-04-07T11:22:01.378Z,36.95
2018-04-07T11:24:28.798Z,36.96
2018-04-07T11:26:56.185Z,37.09
2018-04-07T11:29:23.602Z,37.11
2018-04-07T11:31:50.997Z,36.50
2018-04-07T11:34:18.445Z,35.26
2018-04-07T11:36:45.818Z,35.78
2018-04-07T11:39:13.239Z,35.91
2018-04-07T11:41:40.641Z,36.62
2018-04-07T11:44:08.062Z,35.55
2018-04-07T11:46:35.451Z,34.74
2018-04-07T11:49:02.879Z,35.44
2018-04-07T11:51:30.274Z,34.83
2018-04-07T11:53:57.685Z,35.64
2018-04-07T11:56:25.083Z,34.23
2018-04-07T11:58:52.498Z,35.36
2018-04-07T12:01:19.877Z,34.70
2018-04-07T12:03:47.426Z,34.29
2018-04-07T12:06:14.814Z,35.10
2018-04-07T12:08:42.236Z,34.36
2018-04-07T12:11:09.657Z,32.64
2018-04-07T12:13:37.053Z,32.93
2018-04-07T12:16:04.458Z,32.74
2018-04-07T12:18:31.854Z,33.92
2018-04-07T12:20:59.261Z,33.86
2018-04-07T12:23:26.751Z,31.98
2018-04-07T12:25:54.146Z,31.63
2018-04-07T12:28:21.575Z,31.47
2018-04-07T12:30:49.012Z,31.10
2018-04-07T12:33:16.412Z,30.78
2018-04-07T12:35:43.821Z,32.20
2018-04-07T12:38:11.522Z,33.11
2018-04-07T12:40:38.914Z,32.08
2018-04-07T12:43:06.361Z,30.62
2018-04-07T12:45:33.798Z,31.80
2018-04-07T12:48:01.215Z,30.17
2018-04-07T12:50:28.626Z,31.72
2018-04-07T12:52:56.196Z,31.56
2018-04-07T12:55:23.629Z,31.92
2018-04-07T12:57:51.067Z,31.84
2018-04-07T13:00:18.502Z,30.51
2018-04-07T13:02:45.926Z,30.03
2018-04-07T13:05:13.330Z,29.76
2018-04-07T13:07:40.731Z,29.59
2018-04-07T13:10:08.532Z,30.40
2018-04-07T13:12:35.937Z,30.42
2018-04-07T13:15:03.329Z,29.39
2018-04-07T13:17:30.748Z,29.74
2018-04-07T13:19:58.219Z,30.22
2018-04-07T13:22:25.675Z,28.69
2018-04-07T13:24:53.121Z,30.02
2018-04-07T13:27:20.596Z,30.06
2018-04-07T13:29:47.966Z,30.31
2018-04-07T13:32:15.363Z,29.44
2018-04-07T13:34:42.763Z,28.65
2018-04-07T13:37:10.198Z,28.96
2018-04-07T13:39:37.622Z,29.14
2018-04-07T13:42:05.027Z,29.36
2018-04-07T13:44:32.466Z,29.07
2018-04-07T13:46:59.927Z,29.79
2018-04-07T13:49:27.398Z,27.77
2018-04-07T13:51:54.841Z,27.11
2018-04-07T13:54:22.291Z,28.55
2018-04-07T13:56:50.691Z,27.44
2018-04-07T13:59:18.147Z,26.95
2018-04-07T14:01:45.601Z,25.39
2018-04-07T14:04:13.070Z,26.07
2018-04-07T14:06:40.525Z,26.17
2018-04-07T14:09:07.982Z,25.02
2018-04-07T14:11:35.610Z,26.58
2018-04-07T14:14:03.002Z,26.35
2018-04-07T14:16:30.448Z,26.96
2018-04-07T14:18:58.116Z,25.54
2018-04-07T14:21:25.579Z,26.58
2018-04-07T14:23:53.022Z,27.02
2018-04-07T14:26:20.456Z,24.92
2018-04-07T14:28:47.844Z,25.89
2018-04-07T14:31:15.262Z,25.61
2018-04-07T14:33:42.650Z,25.44
2018-04-07T14:36:10.052Z,25.26
2018-04-07T14:38:37.454Z,25.39
2018-04-07T14:41:04.918Z,24.46
2018-04-07T14:43:32.391Z,25.85
2018-04-07T14:45:59.835Z,25.76
2018-04-07T14:48:27.295Z,26.16
2018-04-07T14:50:54.752Z,26.30
2018-04-07T14:53:22.210Z,25.76
2018-04-07T14:55:49.682Z,25.45
2018-04-07T14:58:17.126Z,26.50
2018-04-07T15:00:44.632Z,26.02
2018-04-07T15:03:12.070Z,24.91
2018-04-07T15:05:39.498Z,24.63
2018-04-07T15:08:06.958Z,25.19
2018-04-07T15:10:34.351Z,25.21
2018-04-07T15:13:01.742Z,25.51
2018-04-07T15:15:30.253Z,26.13
2018-04-07T15:17:57.709Z,25.84
2018-04-07T15:20:25.177Z,26.73
2018-04-07T15:22:52.625Z,27.12
2018-04-07T15:25:20.062Z,26.35
2018-04-07T15:27:47.558Z,27.51
2018-04-07T15:30:15.001Z,27.48
2018-04-07T15:32:42.457Z,27.33
2018-04-07T15:35:10.334Z,26.92
2018-04-07T15:37:37.716Z,28.42
2018-04-07T15:40:05.137Z,28.37
2018-04-07T15:42:32.594Z,28.57
2018-04-07T15:45:00.398Z,27.10
2018-04-07T15:47:27.817Z,26.94
2018-04-07T15:49:55.285Z,27.28
2018-04-07T15:52:22.734Z,29.58
2018-04-07T15:54:50.201Z,28.98
2018-04-07T15:57:17.660Z,28.96
2018-04-07T15:59:45.109Z,29.15
2018-04-07T16:02:12.583Z,29.33
2018-04-07T16:04:40.033Z,29.66
2018-04-07T16:07:07.518Z,29.82
2018-04-07T16:09:34.956Z,30.37
2018-04-07T16:12:02.418Z,30.67
2018-04-07T16:14:29.868Z,30.29
2018-04-07T16:16:57.322Z,30.95
2018-04-07T16:19:24.832Z,31.08
2018-04-07T16:21:52.230Z,31.52
2018-04-07T16:24:19.692Z,31.69
2018-04-07T16:26:47.078Z,31.70
2018-04-07T16:29:14.491Z,31.74
2018-04-07T16:31:41.888Z,32.33
2018-04-07T16:34:09.323Z,32.35
2018-04-07T16:36:36.700Z,31.90
2018-04-07T16:39:04.145Z,31.83
2018-04-07T16:41:32.004Z,32.31
2018-04-07T16:43:59.441Z,32.35
2018-04-07T16:46:26.822Z,32.50
2018-04-07T16:48:54.297Z,32.30
2018-04-07T16:51:21.722Z,32.75
2018-04-07T16:53:49.194Z,32.69
2018-04-07T16:56:16.647Z,32.69
2018-04-07T16:58:44.098Z,32.81
2018-04-07T17:01:11.554Z,33.89
2018-04-07T17:03:39.006Z,34.29
2018-04-07T17:06:06.488Z,35.11
2018-04-07T17:08:33.946Z,35.41
2018-04-07T17:11:01.400Z,35.01
2018-04-07T17:13:29.774Z,34.48
2018-04-07T17:15:57.237Z,34.73
2018-04-07T17:18:24.695Z,34.87
2018-04-07T17:20:52.256Z,35.29
2018-04-07T17:23:19.707Z,35.63
2018-04-07T17:25:47.091Z,35.95
2018-04-07T17:28:14.529Z,35.24
2018-04-07T17:30:42.400Z,35.28
2018-04-07T17:33:09.840Z,35.14
2018-04-07T17:35:37.817Z,35.81
2018-04-07T17:38:05.282Z,36.51
2018-04-07T17:40:33.636Z,35.60
2018-04-07T17:43:01.101Z,36.11
2018-04-07T17:45:28.575Z,35.92
2018-04-07T17:47:56.033Z,35.54
2018-04-07T17:50:23.460Z,35.93
2018-04-07T17:52:51.038Z,36.17
2018-04-07T17:55:18.497Z,35.80
2018-04-07T17:57:45.918Z,35.59
2018-04-07T18:00:13.325Z,35.46
2018-04-07T18:02:40.787Z,35.35
2018-04-07T18:05:08.337Z,35.18
2018-04-07T18:07:35.709Z,34.94
2018-04-07T18:10:03.154Z,34.99
2018-04-07T18:12:30.615Z,35.16
2018-04-07T18:14:58.173Z,35.61
2018-04-07T18:17:25.617Z,35.82
2018-04-07T18:19:53.082Z,36.27
2018-04-07T18:22:20.452Z,36.46
2018-04-07T18:24:48.019Z,36.66
2018-04-07T18:27:15.449Z,36.84
2018-04-07T18:29:42.930Z,36.79
2018-04-07T18:32:10.372Z,36.52
2018-04-07T18:34:37.829Z,36.01
2018-04-07T18:37:05.491Z,35.75
2018-04-07T18:39:33.046Z,35.65
2018-04-07T18:42:00.508Z,35.96
2018-04-07T18:44:30.930Z,36.01
2018-04-07T18:46:58.398Z,36.14
2018-04-07T18:49:25.846Z,36.20
2018-04-07T18:51:53.420Z,36.21
2018-04-07T18:54:20.872Z,36.25
2018-04-07T18:56:48.258Z,36.34
2018-04-07T18:59:15.674Z,36.87
2018-04-07T19:01:43.238Z,36.88
2018-04-07T19:04:10.657Z,37.36
2018-04-07T19:06:38.064Z,37.86
2018-04-07T19:09:06.578Z,37.84
2018-04-07T19:11:34.005Z,37.86
2018-04-07T19:14:01.381Z,38.29
2018-04-07T19:16:28.906Z,38.87
2018-04-07T19:18:56.280Z,39.56
2018-04-07T19:21:23.681Z,40.36
2018-04-07T19:23:51.090Z,40.96
2018-04-07T19:26:18.680Z,41.61
2018-04-07T19:28:46.086Z,41.98
2018-04-07T19:31:13.487Z,42.39
2018-04-07T19:33:40.898Z,42.79
2018-04-07T19:36:09.171Z,42.74
2018-04-07T19:38:37.576Z,42.47
2018-04-07T19:41:04.961Z,43.83
2018-04-07T19:43:32.347Z,44.98
2018-04-07T19:45:59.760Z,45.79
2018-04-07T19:48:27.161Z,44.99
2018-04-07T19:50:54.553Z,44.61
2018-04-07T19:53:21.953Z,44.30
2018-04-07T19:55:49.343Z,43.48
2018-04-07T19:58:16.746Z,43.38
2018-04-07T20:00:44.155Z,43.55
2018-04-07T20:03:11.553Z,43.81
2018-04-07T20:05:38.974Z,43.71
2018-04-07T20:08:06.391Z,43.93
2018-04-07T20:10:33.800Z,44.33
2018-04-07T20:13:01.198Z,44.72
2018-04-07T20:15:28.622Z,44.57
2018-04-07T20:17:56.031Z,44.46
2018-04-07T20:20:23.452Z,44.27
2018-04-07T20:22:50.833Z,44.27
2018-04-07T20:25:18.231Z,44.12
2018-04-07T20:27:45.642Z,44.00
2018-04-07T20:30:13.048Z,43.74
2018-04-07T20:32:40.455Z,43.58
2018-04-07T20:35:07.846Z,43.27
2018-04-07T20:37:35.249Z,42.95
2018-04-07T20:40:02.654Z,43.30
2018-04-07T20:42:30.067Z,43.61
2018-04-07T20:44:57.463Z,44.23
2018-04-07T20:47:24.879Z,44.39
2018-04-07T20:49:52.299Z,44.57
2018-04-07T20:52:19.687Z,44.56
2018-04-07T20:54:47.146Z,44.71
2018-04-07T20:57:14.511Z,44.71
2018-04-07T20:59:41.925Z,44.59
2018-04-07T21:02:09.314Z,44.52
2018-04-07T21:04:36.726Z,44.57
2018-04-07T21:07:04.117Z,44.85
2018-04-07T21:09:31.527Z,46.65
2018-04-07T21:11:58.928Z,47.96
2018-04-07T21:14:26.329Z,47.02
2018-04-07T21:16:53.733Z,47.10
2018-04-07T21:19:21.145Z,46.10
2018-04-07T21:21:48.548Z,46.32
2018-04-07T21:24:15.946Z,46.94
2018-04-07T21:26:43.792Z,46.91
2018-04-07T21:29:11.575Z,47.15
2018-04-07T21:31:38.998Z,46.79
2018-04-07T21:34:06.425Z,46.09
2018-04-07T21:36:33.815Z,45.29
2018-04-07T21:39:01.469Z,44.82
2018-04-07T21:41:28.872Z,44.50
2018-04-07T21:43:56.281Z,46.34
2018-04-07T21:46:23.675Z,47.83
2018-04-07T21:48:51.090Z,52.23
2018-04-07T21:51:18.518Z,53.64
2018-04-07T21:53:45.919Z,51.86
2018-04-07T21:56:13.310Z,48.56
2018-04-07T21:58:40.733Z,47.49
2018-04-07T22:02:38.104Z,47.96
2018-04-07T22:05:05.534Z,48.36
2018-04-07T22:07:32.939Z,47.78
2018-04-07T22:10:00.345Z,46.88
2018-04-07T22:12:27.736Z,46.58
2018-04-07T22:14:55.137Z,46.34
2018-04-07T22:17:22.541Z,48.27
2018-04-07T22:19:49.975Z,48.25
2018-04-07T22:22:17.411Z,49.33
2018-04-07T22:24:44.826Z,50.15
2018-04-07T22:27:12.231Z,50.62
2018-04-07T22:29:39.630Z,51.55
2018-04-07T22:32:07.097Z,54.04
2018-04-07T22:34:34.530Z,54.69
2018-04-07T22:37:01.915Z,55.32
2018-04-07T22:39:29.340Z,57.02
2018-04-07T22:41:56.784Z,56.93
2018-04-07T22:44:24.182Z,56.30
2018-04-07T22:46:51.603Z,56.93
2018-04-07T22:49:18.985Z,55.23
2018-04-07T22:51:46.393Z,54.82
2018-04-07T22:54:14.720Z,57.56
2018-04-07T22:56:42.150Z,58.28
2018-04-07T22:59:09.583Z,59.20
2018-04-07T23:01:36.986Z,59.72
2018-04-07T23:04:04.382Z,60.81
2018-04-07T23:06:31.815Z,61.99
2018-04-07T23:08:59.206Z,61.69
2018-04-07T23:11:26.627Z,61.86
2018-04-07T23:13:54.062Z,62.37
2018-04-07T23:16:21.510Z,62.81
2018-04-07T23:18:48.958Z,63.60
2018-04-07T23:21:16.434Z,64.07
2018-04-07T23:23:43.898Z,63.13
2018-04-07T23:26:11.349Z,64.05
2018-04-07T23:28:38.821Z,64.25
2018-04-07T23:31:06.264Z,64.43
2018-04-07T23:33:33.730Z,64.44
2018-04-07T23:36:01.188Z,64.74
2018-04-07T23:38:28.647Z,65.09
2018-04-07T23:40:56.099Z,64.59
2018-04-07T23:43:23.564Z,63.77
2018-04-07T23:45:51.911Z,64.02
2018-04-07T23:48:19.376Z,64.11
2018-04-07T23:50:46.854Z,63.07
2018-04-07T23:53:14.299Z,61.20
2018-04-07T23:55:41.770Z,59.99
2018-04-07T23:58:09.226Z,58.57
